Portada
METAR-TAF:

METAR-TAF

Aeroports :

Foz do Iguaçu, Paranà, Brasil

latitud: 25-31S, longitud: 054-35W, altitud: 180 m

Observació

L'informe es va fer fa 27 minuts, a les 21:00 UTC
Vent 3 kt del Sud
Temperatura 22°C
Humitat 57%
Pressió 1016 hPa
Visibilitat 10 km o més
Escasses núvols a una alçada de 4000 ft

METAR: SBFI 242100Z 19003KT 9999 FEW040 22/13 Q1016

Hora: 18:27 (21:27 UTC)

Pronòstic

L'informe es va fer fa 6 hores i 27 minuts, a les 15:00 UTC
Pronòstic vàlid del 24 a les 18 UTC al 25 a les 18 UTC
Vent 11 kt del Sud
Visibilitat 10 km o més
Cel ennuvolat a una alçada de 3000 ft
Evolucionant progressivament
l' 25 a les 04 UTC al 25 a les 05 UTC
Visibilitat 10 km o més
sense núvols per sota de 1500 mi sense presència de cumulonimbus.

TAF: SBFI 241500Z 2418/2518 18011KT 9999 BKN030 TX24/2418Z TN12/2508Z BECMG 2504/2505 CAVOK RMK PCQ

Observacions i pronòstics meteorològics de més de 4000 aeroports (METAR i TAF).

Les estacions disponibles són els punts grocs i vermells al mapa.

Posi el ratolí al punt desitjat per veure el nom de l'estació.

Feu clic per veure les observacions i els pronòstics meteorològics.

Per canviar el mapa: feu clic els botons verds amb una creu de color negre per apropar; al botó verd amb un guió per allunyar la imatge; o en les fletxes verdes per a mapes adjacents.


METAR-TAF: